Time;durP1;ratioP1;P1;durP2;ratioP2;P2;SDS_P1;SDS_P2;PMS_P1;PMS_P2;Temp;Humidity;BMP_temperature;BMP_pressure;BME280_temperature;BME280_humidity;BME280_pressure;Samples;Min_cycle;Max_cycle;Signal;HPM_P1;HPM_P2
2021/10/31 00:01:47;;;;;;;5.27;1.57;;;;;;;;;;5135631;27;20246;-77
2021/10/31 00:04:15;;;;;;;7.23;1.80;;;;;;;;;;5135610;27;20319;-78
2021/10/31 00:06:42;;;;;;;4.43;1.50;;;;;;;;;;5136042;27;20565;-80
2021/10/31 00:09:09;;;;;;;7.57;2.00;;;;;;;;;;5129799;27;20221;-80
2021/10/31 00:11:37;;;;;;;5.80;1.43;;;;;;;;;;5114503;28;20232;-80
2021/10/31 00:14:05;;;;;;;3.97;1.73;;;;;;;;;;5115512;28;20246;-80
2021/10/31 00:16:33;;;;;;;6.93;1.70;;;;;;;;;;5114887;28;20348;-79
2021/10/31 00:19:00;;;;;;;6.77;1.87;;;;;;;;;;5115023;28;20709;-80
2021/10/31 00:21:27;;;;;;;4.20;1.33;;;;;;;;;;5115362;27;20266;-79
2021/10/31 00:23:55;;;;;;;8.63;1.70;;;;;;;;;;5115059;28;20626;-80
2021/10/31 00:26:23;;;;;;;7.27;1.50;;;;;;;;;;5118123;27;20236;-80
2021/10/31 00:28:50;;;;;;;5.33;1.87;;;;;;;;;;5114942;28;20232;-80
2021/10/31 00:31:18;;;;;;;5.97;1.63;;;;;;;;;;5114377;28;20281;-80
2021/10/31 00:33:46;;;;;;;4.77;1.10;;;;;;;;;;5114799;28;20726;-79
2021/10/31 00:36:14;;;;;;;7.07;1.50;;;;;;;;;;5114976;28;20280;-79
2021/10/31 00:38:41;;;;;;;6.07;1.47;;;;;;;;;;5114738;28;20276;-80
2021/10/31 00:41:08;;;;;;;6.50;1.50;;;;;;;;;;5114826;28;20284;-80
2021/10/31 00:43:36;;;;;;;4.33;1.50;;;;;;;;;;5114517;28;20202;-80
2021/10/31 00:46:03;;;;;;;5.27;1.53;;;;;;;;;;5120860;27;20599;-79
2021/10/31 00:48:30;;;;;;;3.10;1.40;;;;;;;;;;5135367;27;20233;-79
2021/10/31 00:50:59;;;;;;;4.70;1.50;;;;;;;;;;5135094;27;20708;-80
2021/10/31 00:53:26;;;;;;;5.50;1.47;;;;;;;;;;5135140;27;20236;-79
2021/10/31 00:55:53;;;;;;;8.17;1.67;;;;;;;;;;5135293;27;20276;-80
2021/10/31 00:58:20;;;;;;;8.17;1.50;;;;;;;;;;5134786;27;20661;-79
2021/10/31 01:00:48;;;;;;;6.13;1.57;;;;;;;;;;5134982;27;20651;-79
2021/10/31 01:03:16;;;;;;;4.70;1.30;;;;;;;;;;5116962;27;20304;-80
2021/10/31 01:05:46;;;;;;;6.07;1.40;;;;;;;;;;5113792;28;20256;-79
2021/10/31 01:08:25;;;;;;;6.17;1.27;;;;;;;;;;5114297;28;20258;-79
2021/10/31 01:10:59;;;;;;;4.40;1.50;;;;;;;;;;5114107;28;20625;-79
2021/10/31 01:13:43;;;;;;;4.73;1.50;;;;;;;;;;5114030;28;20209;-78
2021/10/31 01:16:16;;;;;;;5.17;1.30;;;;;;;;;;5113547;28;20239;-77
2021/10/31 01:18:56;;;;;;;3.60;1.40;;;;;;;;;;5113658;28;20719;-80
2021/10/31 01:21:28;;;;;;;5.80;1.40;;;;;;;;;;5113853;28;20236;-80
2021/10/31 01:24:18;;;;;;;8.30;1.50;;;;;;;;;;5112846;28;20233;-80
2021/10/31 01:26:50;;;;;;;3.33;1.40;;;;;;;;;;5113681;28;20200;-78
2021/10/31 01:29:23;;;;;;;5.40;1.20;;;;;;;;;;5113765;28;20204;-77
2021/10/31 01:31:56;;;;;;;7.17;1.83;;;;;;;;;;5113671;28;20226;-77
2021/10/31 01:34:29;;;;;;;6.00;1.30;;;;;;;;;;5113367;28;20269;-79
2021/10/31 01:37:00;;;;;;;5.53;1.50;;;;;;;;;;5113272;28;20285;-79
2021/10/31 01:39:32;;;;;;;5.33;1.60;;;;;;;;;;5113630;28;20308;-79
2021/10/31 01:42:02;;;;;;;6.63;1.83;;;;;;;;;;5113261;28;20692;-80
2021/10/31 01:44:32;;;;;;;7.63;1.33;;;;;;;;;;5113010;28;20254;-80
2021/10/31 01:47:04;;;;;;;6.13;1.60;;;;;;;;;;5113226;28;20232;-80
2021/10/31 01:49:36;;;;;;;5.20;1.40;;;;;;;;;;5113293;28;20229;-79
2021/10/31 01:52:06;;;;;;;5.57;1.40;;;;;;;;;;5113531;28;20229;-79
2021/10/31 01:54:37;;;;;;;6.13;1.33;;;;;;;;;;5113249;28;20285;-79
2021/10/31 01:57:07;;;;;;;3.70;1.03;;;;;;;;;;5113621;28;20202;-79
2021/10/31 01:59:36;;;;;;;3.53;1.10;;;;;;;;;;5112580;28;20213;-79
2021/10/31 02:02:04;;;;;;;6.87;1.50;;;;;;;;;;5113530;28;20316;-79
2021/10/31 02:04:33;;;;;;;3.33;1.30;;;;;;;;;;5112795;28;20276;-79
2021/10/31 02:07:02;;;;;;;2.73;1.17;;;;;;;;;;5113144;28;20284;-78
2021/10/31 02:09:31;;;;;;;4.50;1.10;;;;;;;;;;5112694;28;20229;-79
2021/10/31 02:12:01;;;;;;;3.23;1.20;;;;;;;;;;5112771;28;20198;-79
2021/10/31 02:14:29;;;;;;;5.57;1.30;;;;;;;;;;5113060;28;20292;-79
2021/10/31 02:16:57;;;;;;;3.73;1.10;;;;;;;;;;5112885;28;20229;-79
2021/10/31 02:19:27;;;;;;;6.57;1.40;;;;;;;;;;5112981;28;20304;-79
2021/10/31 02:21:55;;;;;;;4.13;1.30;;;;;;;;;;5112913;28;20200;-80
2021/10/31 02:24:23;;;;;;;6.40;1.73;;;;;;;;;;5112756;28;20289;-79
2021/10/31 02:26:51;;;;;;;4.63;1.30;;;;;;;;;;5112523;28;20200;-79
2021/10/31 02:29:18;;;;;;;5.13;1.30;;;;;;;;;;5112954;28;20196;-79
2021/10/31 02:31:45;;;;;;;4.87;0.93;;;;;;;;;;5112639;28;20252;-79
2021/10/31 02:34:13;;;;;;;4.67;1.10;;;;;;;;;;5114036;28;20237;-79
2021/10/31 02:36:40;;;;;;;4.97;1.30;;;;;;;;;;5124256;27;20200;-79
2021/10/31 02:39:08;;;;;;;3.13;1.10;;;;;;;;;;5130368;27;20224;-79
2021/10/31 02:41:37;;;;;;;5.20;1.40;;;;;;;;;;5137672;27;20235;-79
2021/10/31 02:44:04;;;;;;;4.50;1.30;;;;;;;;;;5137513;27;20291;-79
2021/10/31 02:46:33;;;;;;;3.47;1.30;;;;;;;;;;5126966;27;20300;-79
2021/10/31 02:49:00;;;;;;;4.43;1.60;;;;;;;;;;5116843;28;20244;-80
2021/10/31 02:51:35;;;;;;;5.30;1.60;;;;;;;;;;5117241;27;20225;-79
2021/10/31 02:54:07;;;;;;;8.73;1.30;;;;;;;;;;5116900;28;20232;-79
2021/10/31 02:56:37;;;;;;;3.73;1.23;;;;;;;;;;5131664;27;20645;-79
2021/10/31 02:59:07;;;;;;;5.93;1.30;;;;;;;;;;5137400;27;20284;-79
2021/10/31 03:01:36;;;;;;;3.90;1.30;;;;;;;;;;5124399;27;20229;-79
2021/10/31 03:04:04;;;;;;;7.07;1.60;;;;;;;;;;5116164;28;20661;-80
2021/10/31 03:06:31;;;;;;;6.17;1.40;;;;;;;;;;5116329;27;20293;-79
2021/10/31 03:08:58;;;;;;;7.20;1.43;;;;;;;;;;5121952;27;20628;-79
2021/10/31 03:11:27;;;;;;;5.37;1.50;;;;;;;;;;5136490;27;20603;-79
2021/10/31 03:13:56;;;;;;;5.23;1.50;;;;;;;;;;5136736;27;20196;-79
2021/10/31 03:16:23;;;;;;;9.97;1.77;;;;;;;;;;5136748;27;20237;-78
2021/10/31 03:18:50;;;;;;;4.00;1.47;;;;;;;;;;5136940;27;20290;-80
2021/10/31 03:21:17;;;;;;;6.30;1.50;;;;;;;;;;5136870;27;20308;-80
2021/10/31 03:23:45;;;;;;;8.13;1.70;;;;;;;;;;5136637;27;20228;-80
2021/10/31 03:26:12;;;;;;;6.97;1.47;;;;;;;;;;5136261;27;20232;-80
2021/10/31 03:28:39;;;;;;;7.40;1.63;;;;;;;;;;5136661;27;20233;-79
2021/10/31 03:31:07;;;;;;;6.23;1.40;;;;;;;;;;5136460;27;20231;-80
2021/10/31 03:33:35;;;;;;;5.57;1.43;;;;;;;;;;5136697;27;20199;-80
2021/10/31 03:36:02;;;;;;;5.50;1.63;;;;;;;;;;5123054;27;20288;-80
2021/10/31 03:38:29;;;;;;;7.77;1.43;;;;;;;;;;5129999;27;20382;-80
2021/10/31 03:40:56;;;;;;;8.07;1.53;;;;;;;;;;5135983;27;20231;-80
2021/10/31 03:43:23;;;;;;;7.87;1.60;;;;;;;;;;5136418;27;20225;-79
2021/10/31 03:45:51;;;;;;;7.83;1.63;;;;;;;;;;5135013;27;20281;-80
2021/10/31 03:48:20;;;;;;;5.63;1.33;;;;;;;;;;5135873;27;20665;-80
2021/10/31 03:50:47;;;;;;;9.07;1.80;;;;;;;;;;5135981;27;20276;-79
2021/10/31 03:53:14;;;;;;;8.00;1.80;;;;;;;;;;5135756;27;20621;-80
2021/10/31 03:55:41;;;;;;;7.63;2.00;;;;;;;;;;5127628;27;20221;-79
2021/10/31 03:58:08;;;;;;;5.93;1.70;;;;;;;;;;5115394;28;20251;-80
2021/10/31 04:00:36;;;;;;;8.53;1.73;;;;;;;;;;5115354;27;20264;-80
2021/10/31 04:03:03;;;;;;;6.77;2.30;;;;;;;;;;5115494;28;20301;-79
2021/10/31 04:05:31;;;;;;;5.20;1.33;;;;;;;;;;5115340;28;20323;-79
2021/10/31 04:07:59;;;;;;;7.90;2.40;;;;;;;;;;5115499;28;20200;-79
2021/10/31 04:10:26;;;;;;;6.37;1.60;;;;;;;;;;5115242;28;20228;-80
2021/10/31 04:12:53;;;;;;;10.60;2.10;;;;;;;;;;5132402;27;20280;-80
2021/10/31 04:15:20;;;;;;;9.20;1.57;;;;;;;;;;5135905;27;20233;-79
2021/10/31 04:17:48;;;;;;;5.50;1.40;;;;;;;;;;5135909;27;20232;-80
2021/10/31 04:20:16;;;;;;;6.00;1.70;;;;;;;;;;5135493;27;20252;-80
2021/10/31 04:22:45;;;;;;;8.10;1.60;;;;;;;;;;5135275;27;20686;-80
2021/10/31 04:25:12;;;;;;;5.10;1.63;;;;;;;;;;5135531;27;20192;-79
2021/10/31 04:27:39;;;;;;;6.70;1.77;;;;;;;;;;5121993;27;20243;-79
2021/10/31 04:30:08;;;;;;;6.43;1.57;;;;;;;;;;5115209;28;20189;-80
2021/10/31 04:32:35;;;;;;;4.67;1.37;;;;;;;;;;5115083;28;20247;-80
2021/10/31 04:35:03;;;;;;;4.90;1.60;;;;;;;;;;5115298;28;20233;-77
2021/10/31 04:37:30;;;;;;;7.17;1.53;;;;;;;;;;5114189;28;20251;-79
2021/10/31 04:39:59;;;;;;;6.43;1.50;;;;;;;;;;5126154;27;20290;-80
2021/10/31 04:42:31;;;;;;;4.30;1.30;;;;;;;;;;5135608;27;20242;-79
2021/10/31 04:44:59;;;;;;;6.20;1.40;;;;;;;;;;5135095;27;20193;-79
2021/10/31 04:47:26;;;;;;;6.57;1.50;;;;;;;;;;5135081;27;20902;-78
2021/10/31 04:49:53;;;;;;;8.93;1.63;;;;;;;;;;5135277;27;20247;-79
2021/10/31 04:52:21;;;;;;;5.40;1.50;;;;;;;;;;5134870;27;20280;-80
2021/10/31 04:54:48;;;;;;;3.63;1.10;;;;;;;;;;5135311;27;20288;-79
2021/10/31 04:57:17;;;;;;;7.13;1.57;;;;;;;;;;5138861;27;20629;-80
2021/10/31 04:59:44;;;;;;;6.33;1.60;;;;;;;;;;5155740;27;20196;-80
2021/10/31 05:02:11;;;;;;;6.00;1.40;;;;;;;;;;5147819;27;20237;-77
2021/10/31 05:04:39;;;;;;;5.60;1.30;;;;;;;;;;5131918;27;20675;-79
2021/10/31 05:07:06;;;;;;;5.93;1.70;;;;;;;;;;5113684;28;20285;-78
2021/10/31 05:09:33;;;;;;;5.90;1.00;;;;;;;;;;5114227;28;20201;-80
2021/10/31 05:12:00;;;;;;;6.27;1.30;;;;;;;;;;5113781;28;20232;-80
2021/10/31 05:14:29;;;;;;;7.57;1.67;;;;;;;;;;5113535;28;20289;-80
2021/10/31 05:16:56;;;;;;;5.80;1.40;;;;;;;;;;5113617;28;20209;-80
2021/10/31 05:19:24;;;;;;;4.60;1.20;;;;;;;;;;5113757;27;20731;-80
2021/10/31 05:21:51;;;;;;;6.40;1.57;;;;;;;;;;5113827;28;20217;-80
2021/10/31 05:24:18;;;;;;;7.53;1.50;;;;;;;;;;5114065;28;20330;-80
2021/10/31 05:26:45;;;;;;;2.73;1.00;;;;;;;;;;5127573;27;20232;-79
2021/10/31 05:29:12;;;;;;;1.93;1.00;;;;;;;;;;5134125;27;20291;-80
2021/10/31 05:31:41;;;;;;;3.77;1.20;;;;;;;;;;5134165;27;20283;-80
2021/10/31 05:34:08;;;;;;;4.77;1.10;;;;;;;;;;5134247;27;20287;-78
2021/10/31 05:36:35;;;;;;;6.60;0.90;;;;;;;;;;5133640;27;20288;-80
2021/10/31 05:39:03;;;;;;;6.07;1.37;;;;;;;;;;5134174;27;20205;-80
2021/10/31 05:41:30;;;;;;;5.47;1.27;;;;;;;;;;5126559;27;20312;-80
2021/10/31 05:43:57;;;;;;;4.23;1.10;;;;;;;;;;5113782;28;20280;-79
2021/10/31 05:46:24;;;;;;;5.33;1.27;;;;;;;;;;5113639;28;20198;-79
2021/10/31 05:48:53;;;;;;;3.53;1.07;;;;;;;;;;5113385;28;20289;-79
2021/10/31 05:51:20;;;;;;;4.33;1.10;;;;;;;;;;5113052;28;20637;-80
2021/10/31 05:53:47;;;;;;;5.73;1.30;;;;;;;;;;5113461;28;20274;-79
2021/10/31 05:56:15;;;;;;;4.60;1.30;;;;;;;;;;5113207;28;20289;-80
2021/10/31 05:58:42;;;;;;;5.13;1.20;;;;;;;;;;5131119;27;20252;-80
2021/10/31 06:01:09;;;;;;;4.13;1.00;;;;;;;;;;5133889;27;20307;-80
2021/10/31 06:03:36;;;;;;;4.73;1.10;;;;;;;;;;5133563;27;20212;-80
2021/10/31 06:06:05;;;;;;;3.70;0.80;;;;;;;;;;5133490;27;20201;-80
2021/10/31 06:08:32;;;;;;;2.50;0.83;;;;;;;;;;5133404;27;20247;-80
2021/10/31 06:10:59;;;;;;;4.87;1.00;;;;;;;;;;5133225;27;20635;-80
2021/10/31 06:13:27;;;;;;;3.70;0.93;;;;;;;;;;5113744;27;20280;-80
2021/10/31 06:15:54;;;;;;;3.57;0.90;;;;;;;;;;5113164;28;20289;-80
2021/10/31 06:18:21;;;;;;;3.23;0.77;;;;;;;;;;5112715;28;20201;-80
2021/10/31 06:20:48;;;;;;;4.20;0.90;;;;;;;;;;5112862;28;20257;-80
2021/10/31 06:23:17;;;;;;;2.67;0.80;;;;;;;;;;5112832;28;20193;-78
2021/10/31 06:25:44;;;;;;;2.90;0.80;;;;;;;;;;5112971;28;20285;-79
2021/10/31 06:28:11;;;;;;;3.17;0.90;;;;;;;;;;5129458;28;20201;-80
2021/10/31 06:30:39;;;;;;;2.83;0.90;;;;;;;;;;5133757;27;20189;-80
2021/10/31 06:33:06;;;;;;;3.13;0.77;;;;;;;;;;5133281;27;20283;-80
2021/10/31 06:35:33;;;;;;;2.97;1.00;;;;;;;;;;5133595;27;20228;-80
2021/10/31 06:38:01;;;;;;;3.20;0.70;;;;;;;;;;5133025;27;20280;-80
2021/10/31 06:40:29;;;;;;;3.73;0.80;;;;;;;;;;5133070;27;20231;-80
2021/10/31 06:42:57;;;;;;;2.17;0.80;;;;;;;;;;5132497;27;20241;-79
2021/10/31 06:45:24;;;;;;;2.80;0.70;;;;;;;;;;5133506;27;20293;-80
2021/10/31 06:47:51;;;;;;;2.60;0.90;;;;;;;;;;5132876;27;20232;-79
2021/10/31 06:50:18;;;;;;;2.63;0.97;;;;;;;;;;5133461;27;20221;-79
2021/10/31 06:52:49;;;;;;;2.23;0.60;;;;;;;;;;5133215;27;20280;-79
2021/10/31 06:55:16;;;;;;;3.97;1.00;;;;;;;;;;5133025;27;20209;-79
2021/10/31 06:57:45;;;;;;;2.27;0.77;;;;;;;;;;5133100;27;20684;-79
2021/10/31 07:00:12;;;;;;;2.53;0.80;;;;;;;;;;5133084;27;20217;-79
2021/10/31 07:02:40;;;;;;;1.87;0.80;;;;;;;;;;5132842;27;20307;-79
2021/10/31 07:05:07;;;;;;;2.93;1.03;;;;;;;;;;5132675;27;20271;-78
2021/10/31 07:07:35;;;;;;;4.10;0.90;;;;;;;;;;5131946;27;20280;-80
2021/10/31 07:10:02;;;;;;;2.30;0.87;;;;;;;;;;5133152;27;20287;-79
2021/10/31 07:12:29;;;;;;;2.80;1.00;;;;;;;;;;5124147;27;20368;-79
2021/10/31 07:14:59;;;;;;;2.73;1.03;;;;;;;;;;5112787;28;20284;-78
2021/10/31 07:17:26;;;;;;;1.90;0.90;;;;;;;;;;5112248;28;20581;-78
2021/10/31 07:19:53;;;;;;;2.33;1.00;;;;;;;;;;5113949;28;20229;-78
2021/10/31 07:22:20;;;;;;;1.73;0.70;;;;;;;;;;5116105;28;20685;-79
2021/10/31 07:24:49;;;;;;;1.80;0.73;;;;;;;;;;5116195;28;20288;-79
2021/10/31 07:27:16;;;;;;;1.90;1.00;;;;;;;;;;5116234;28;20617;-78
2021/10/31 07:29:43;;;;;;;4.23;1.10;;;;;;;;;;5116184;28;20284;-79
2021/10/31 07:32:12;;;;;;;2.57;1.00;;;;;;;;;;5115689;28;20638;-79
2021/10/31 07:34:40;;;;;;;3.07;0.80;;;;;;;;;;5128096;27;20208;-79
2021/10/31 07:37:07;;;;;;;1.13;0.83;;;;;;;;;;5136556;27;20200;-80
2021/10/31 07:39:35;;;;;;;2.60;0.80;;;;;;;;;;5136360;27;20281;-79
2021/10/31 07:42:02;;;;;;;2.93;1.00;;;;;;;;;;5136454;27;20585;-79
2021/10/31 07:44:30;;;;;;;1.40;1.00;;;;;;;;;;5136333;27;20205;-79
2021/10/31 07:46:57;;;;;;;1.53;0.90;;;;;;;;;;5136087;27;20747;-79
2021/10/31 07:49:25;;;;;;;2.87;0.90;;;;;;;;;;5126650;27;20290;-79
2021/10/31 07:51:53;;;;;;;1.83;0.90;;;;;;;;;;5115823;28;20646;-79
2021/10/31 07:54:24;;;;;;;1.87;1.20;;;;;;;;;;5115880;28;20237;-79
2021/10/31 07:56:54;;;;;;;2.70;0.97;;;;;;;;;;5115969;28;20250;-79
2021/10/31 07:59:22;;;;;;;3.63;0.83;;;;;;;;;;5115977;28;20205;-79
2021/10/31 08:01:49;;;;;;;1.93;1.10;;;;;;;;;;5115231;28;20765;-79
2021/10/31 08:04:17;;;;;;;2.00;0.90;;;;;;;;;;5115567;28;20717;-79
2021/10/31 08:06:46;;;;;;;2.30;1.20;;;;;;;;;;5115815;28;20241;-79
2021/10/31 08:09:13;;;;;;;3.30;1.20;;;;;;;;;;5115833;28;20262;-79
2021/10/31 08:11:42;;;;;;;2.83;1.10;;;;;;;;;;5129300;27;20228;-79
2021/10/31 08:14:10;;;;;;;4.30;1.87;;;;;;;;;;5136094;27;20230;-79
2021/10/31 08:16:38;;;;;;;1.60;1.30;;;;;;;;;;5135816;27;20240;-79
2021/10/31 08:19:05;;;;;;;4.50;1.50;;;;;;;;;;5136134;27;20288;-79
2021/10/31 08:21:32;;;;;;;3.50;1.60;;;;;;;;;;5136027;27;20298;-79
2021/10/31 08:24:01;;;;;;;2.63;1.43;;;;;;;;;;5135964;27;20759;-79
2021/10/31 08:26:28;;;;;;;5.77;1.80;;;;;;;;;;5134899;27;20207;-79
2021/10/31 08:28:57;;;;;;;2.93;1.63;;;;;;;;;;5115147;28;20210;-79
2021/10/31 08:31:26;;;;;;;4.80;2.00;;;;;;;;;;5113984;28;20233;-78
2021/10/31 08:33:56;;;;;;;3.57;1.90;;;;;;;;;;5115278;28;20202;-79
2021/10/31 08:36:23;;;;;;;3.83;1.83;;;;;;;;;;5115123;28;20204;-79
2021/10/31 08:38:51;;;;;;;3.27;2.10;;;;;;;;;;5116745;27;20637;-79
2021/10/31 08:41:20;;;;;;;3.87;2.80;;;;;;;;;;5135562;27;20649;-79
2021/10/31 08:43:47;;;;;;;4.37;2.10;;;;;;;;;;5135537;27;20541;-79
2021/10/31 08:46:16;;;;;;;3.23;2.30;;;;;;;;;;5135164;27;20237;-78
2021/10/31 08:48:43;;;;;;;3.53;2.43;;;;;;;;;;5135117;27;20287;-79
2021/10/31 08:51:11;;;;;;;2.93;2.30;;;;;;;;;;5133776;27;20633;-79
2021/10/31 08:53:39;;;;;;;4.63;3.00;;;;;;;;;;5133693;27;20201;-79
2021/10/31 08:56:10;;;;;;;2.80;2.50;;;;;;;;;;5114212;28;20259;-79
2021/10/31 08:58:38;;;;;;;4.97;2.67;;;;;;;;;;5113875;28;20278;-79
2021/10/31 09:01:06;;;;;;;5.73;2.87;;;;;;;;;;5114239;28;20610;-79
2021/10/31 09:03:33;;;;;;;4.83;2.80;;;;;;;;;;5114405;28;20308;-78
2021/10/31 09:06:00;;;;;;;4.00;2.60;;;;;;;;;;5128730;27;20287;-79
2021/10/31 09:08:27;;;;;;;4.67;2.67;;;;;;;;;;5126317;27;20221;-79
2021/10/31 09:10:54;;;;;;;4.23;2.60;;;;;;;;;;5134693;27;20284;-78
2021/10/31 09:13:22;;;;;;;8.23;3.07;;;;;;;;;;5134635;27;20193;-79
2021/10/31 09:15:52;;;;;;;3.93;2.30;;;;;;;;;;5134900;27;20288;-79
2021/10/31 09:18:19;;;;;;;5.60;2.63;;;;;;;;;;5134595;27;20651;-78
2021/10/31 09:20:47;;;;;;;3.87;2.40;;;;;;;;;;5134502;27;20287;-79
2021/10/31 09:23:15;;;;;;;4.53;2.63;;;;;;;;;;5128285;27;20798;-79
2021/10/31 09:25:42;;;;;;;5.83;3.10;;;;;;;;;;5113881;27;20228;-78
2021/10/31 09:28:09;;;;;;;6.43;2.67;;;;;;;;;;5113798;28;20280;-78
2021/10/31 09:30:38;;;;;;;5.70;2.70;;;;;;;;;;5114220;28;20288;-79
2021/10/31 09:33:07;;;;;;;5.80;2.63;;;;;;;;;;5113600;28;20190;-79
2021/10/31 09:35:42;;;;;;;3.53;2.30;;;;;;;;;;5113982;28;20661;-78
2021/10/31 09:38:09;;;;;;;4.20;1.70;;;;;;;;;;5117583;27;20571;-79
2021/10/31 09:40:38;;;;;;;4.23;1.80;;;;;;;;;;5128130;27;20201;-79
2021/10/31 09:43:06;;;;;;;4.03;1.53;;;;;;;;;;5132719;27;20223;-79
2021/10/31 09:45:34;;;;;;;3.23;1.80;;;;;;;;;;5133842;27;20197;-79
2021/10/31 09:48:03;;;;;;;2.33;1.10;;;;;;;;;;5133920;27;20284;-79
2021/10/31 09:50:32;;;;;;;2.40;1.10;;;;;;;;;;5134174;27;20205;-79
2021/10/31 09:53:00;;;;;;;1.43;0.90;;;;;;;;;;5133751;27;20197;-79
2021/10/31 09:55:28;;;;;;;3.33;1.00;;;;;;;;;;5133836;27;20287;-78
2021/10/31 09:57:55;;;;;;;2.00;0.77;;;;;;;;;;5120373;27;20698;-79
2021/10/31 10:00:33;;;;;;;1.53;0.87;;;;;;;;;;5113610;28;20881;-79
2021/10/31 10:03:06;;;;;;;2.70;0.70;;;;;;;;;;5112593;28;20250;-78
2021/10/31 10:05:35;;;;;;;2.33;1.00;;;;;;;;;;5115074;28;20225;-78
2021/10/31 10:08:09;;;;;;;2.57;1.00;;;;;;;;;;5113040;28;20829;-79
2021/10/31 10:10:43;;;;;;;2.93;1.50;;;;;;;;;;5113272;28;20236;-78
2021/10/31 10:13:18;;;;;;;4.30;1.30;;;;;;;;;;5118270;27;20276;-78
2021/10/31 10:15:46;;;;;;;3.80;1.63;;;;;;;;;;5113197;28;20682;-78
2021/10/31 10:18:28;;;;;;;2.40;1.00;;;;;;;;;;5112643;28;20293;-79
2021/10/31 10:20:57;;;;;;;3.30;1.37;;;;;;;;;;5112989;28;20236;-79
2021/10/31 10:23:24;;;;;;;4.43;2.20;;;;;;;;;;5113111;28;20221;-79
2021/10/31 10:25:52;;;;;;;3.63;2.30;;;;;;;;;;5112803;28;20288;-79
2021/10/31 10:28:25;;;;;;;8.57;4.77;;;;;;;;;;5112622;28;20202;-78
2021/10/31 10:30:52;;;;;;;12.77;9.60;;;;;;;;;;5112865;28;20205;-78
2021/10/31 10:33:21;;;;;;;10.63;7.53;;;;;;;;;;5112933;28;20228;-79
2021/10/31 10:35:52;;;;;;;6.80;4.53;;;;;;;;;;5113200;28;20277;-78
2021/10/31 10:38:21;;;;;;;4.77;2.70;;;;;;;;;;5112866;28;20206;-79
2021/10/31 10:40:48;;;;;;;9.13;3.00;;;;;;;;;;5112772;28;20304;-79
2021/10/31 10:43:15;;;;;;;4.93;2.07;;;;;;;;;;5113567;28;20225;-79
2021/10/31 10:45:42;;;;;;;2.97;1.47;;;;;;;;;;5120824;28;20197;-79
2021/10/31 10:48:16;;;;;;;3.47;1.40;;;;;;;;;;5133126;27;20288;-79
2021/10/31 10:50:44;;;;;;;3.50;2.00;;;;;;;;;;5133020;27;20204;-79
2021/10/31 10:53:14;;;;;;;3.57;2.30;;;;;;;;;;5132959;27;20699;-79
2021/10/31 10:55:43;;;;;;;3.27;1.10;;;;;;;;;;5136272;27;20279;-79
2021/10/31 10:58:11;;;;;;;4.23;1.43;;;;;;;;;;5137725;27;20288;-79
2021/10/31 11:00:40;;;;;;;4.90;1.40;;;;;;;;;;5137689;27;20232;-79
2021/10/31 11:03:07;;;;;;;4.57;1.10;;;;;;;;;;5137008;27;20335;-79
2021/10/31 11:05:35;;;;;;;2.40;1.00;;;;;;;;;;5137424;27;20324;-79
2021/10/31 11:08:03;;;;;;;3.63;1.57;;;;;;;;;;5137387;27;20201;-79
2021/10/31 11:10:31;;;;;;;4.33;1.20;;;;;;;;;;5136382;27;20668;-79
2021/10/31 11:13:00;;;;;;;4.30;1.23;;;;;;;;;;5123855;27;20198;-79
2021/10/31 11:15:29;;;;;;;5.10;1.50;;;;;;;;;;5116429;28;20288;-79
2021/10/31 11:17:57;;;;;;;4.30;1.50;;;;;;;;;;5116890;28;20244;-79
2021/10/31 11:20:26;;;;;;;4.57;1.70;;;;;;;;;;5116460;28;20284;-79
2021/10/31 11:22:56;;;;;;;6.47;2.23;;;;;;;;;;5117722;27;20312;-79
2021/10/31 11:25:23;;;;;;;7.77;1.87;;;;;;;;;;5136491;27;20308;-79
2021/10/31 11:27:51;;;;;;;7.60;1.63;;;;;;;;;;5136486;27;20690;-79
2021/10/31 11:30:21;;;;;;;6.37;2.80;;;;;;;;;;5116053;28;20248;-79
2021/10/31 11:32:50;;;;;;;4.43;2.00;;;;;;;;;;5116219;28;20226;-79
2021/10/31 11:35:18;;;;;;;7.07;2.50;;;;;;;;;;5115912;28;20201;-79
2021/10/31 11:37:47;;;;;;;7.33;2.40;;;;;;;;;;5115951;28;20288;-79
2021/10/31 11:40:15;;;;;;;9.07;2.67;;;;;;;;;;5116192;28;20298;-79
2021/10/31 11:42:44;;;;;;;5.97;2.30;;;;;;;;;;5115875;28;20932;-79
2021/10/31 11:45:12;;;;;;;8.03;1.83;;;;;;;;;;5116214;28;20244;-79
2021/10/31 11:47:42;;;;;;;6.20;1.90;;;;;;;;;;5115973;28;20293;-78
2021/10/31 11:50:14;;;;;;;7.73;1.80;;;;;;;;;;5131812;27;20279;-79
2021/10/31 11:52:46;;;;;;;6.60;2.00;;;;;;;;;;5134970;27;20576;-79
2021/10/31 11:55:31;;;;;;;6.67;1.70;;;;;;;;;;5135170;27;20720;-77
2021/10/31 11:58:14;;;;;;;6.57;1.50;;;;;;;;;;5136050;27;20193;-77
2021/10/31 12:00:49;;;;;;;8.27;1.50;;;;;;;;;;5134885;27;20349;-77
2021/10/31 12:03:41;;;;;;;7.00;1.47;;;;;;;;;;5136178;27;20221;-77
2021/10/31 12:06:23;;;;;;;7.63;1.50;;;;;;;;;;5135099;27;20203;-78
2021/10/31 12:08:53;;;;;;;6.53;1.63;;;;;;;;;;5135700;27;20196;-79
2021/10/31 12:11:21;;;;;;;7.60;1.33;;;;;;;;;;5136225;27;20220;-78
2021/10/31 12:13:51;;;;;;;7.77;1.67;;;;;;;;;;5136132;27;20217;-80
2021/10/31 12:16:18;;;;;;;6.73;1.33;;;;;;;;;;5135960;27;20216;-80
2021/10/31 12:18:49;;;;;;;8.30;1.60;;;;;;;;;;5132822;27;20300;-79
2021/10/31 12:21:20;;;;;;;6.67;1.30;;;;;;;;;;5114912;28;20197;-79
2021/10/31 12:23:54;;;;;;;5.40;1.13;;;;;;;;;;5135053;27;20312;-79
2021/10/31 12:26:22;;;;;;;9.23;1.90;;;;;;;;;;5135685;27;20299;-79
2021/10/31 12:28:49;;;;;;;8.47;1.70;;;;;;;;;;5135639;27;20243;-79
2021/10/31 12:31:41;;;;;;;5.50;1.50;;;;;;;;;;5135758;27;20280;-79
2021/10/31 12:34:11;;;;;;;6.50;1.53;;;;;;;;;;5110787;27;20280;-79
2021/10/31 12:36:39;;;;;;;7.53;1.60;;;;;;;;;;5114906;28;20285;-79
2021/10/31 12:39:21;;;;;;;7.75;1.05;;;;;;;;;;5117259;27;20252;-79
2021/10/31 12:42:11;;;;;;;9.43;1.70;;;;;;;;;;5124475;27;20229;-82
2021/10/31 12:44:38;;;;;;;13.50;1.67;;;;;;;;;;5132866;27;20654;-85
2021/10/31 12:47:07;;;;;;;6.65;1.60;;;;;;;;;;5126499;27;20221;-82
2021/10/31 12:49:36;;;;;;;8.30;1.67;;;;;;;;;;5116018;27;20630;-80
2021/10/31 12:52:04;;;;;;;8.43;1.80;;;;;;;;;;5120563;27;20285;-80
2021/10/31 12:54:33;;;;;;;6.68;1.77;;;;;;;;;;5123674;27;20230;-79
2021/10/31 12:57:00;;;;;;;5.72;1.33;;;;;;;;;;5127578;27;20194;-80
2021/10/31 12:59:28;;;;;;;30.08;3.25;;;;;;;;;;5120647;27;20685;-81
2021/10/31 13:02:05;;;;;;;10.20;1.90;;;;;;;;;;5123161;27;20704;-81
2021/10/31 13:04:32;;;;;;;8.90;2.30;;;;;;;;;;5119341;27;20264;-80
2021/10/31 13:07:12;;;;;;;9.90;1.75;;;;;;;;;;5149657;27;20291;-80
2021/10/31 13:09:39;;;;;;;6.70;1.45;;;;;;;;;;5127644;27;20571;-80
2021/10/31 13:12:07;;;;;;;9.32;1.90;;;;;;;;;;5127995;27;20201;-81
2021/10/31 13:14:35;;;;;;;9.95;1.98;;;;;;;;;;5127686;27;20284;-81
2021/10/31 13:17:04;;;;;;;8.68;1.80;;;;;;;;;;5128416;27;20276;-81
2021/10/31 13:19:32;;;;;;;9.15;2.10;;;;;;;;;;5116006;27;20635;-81
2021/10/31 13:22:01;;;;;;;8.77;1.90;;;;;;;;;;5121672;27;20201;-79
2021/10/31 13:24:32;;;;;;;7.68;1.83;;;;;;;;;;5128033;27;20921;-78
2021/10/31 13:26:59;;;;;;;7.32;1.42;;;;;;;;;;5127360;27;20196;-80
2021/10/31 13:29:40;;;;;;;7.90;1.55;;;;;;;;;;5120893;27;20285;-80
2021/10/31 13:32:11;;;;;;;7.03;1.48;;;;;;;;;;5124473;27;20296;-79
2021/10/31 13:34:38;;;;;;;7.07;1.65;;;;;;;;;;5125755;27;20803;-80
2021/10/31 13:37:08;;;;;;;7.05;1.63;;;;;;;;;;5129242;27;20235;-80
2021/10/31 13:39:36;;;;;;;10.00;1.92;;;;;;;;;;5121754;27;20204;-80
2021/10/31 13:42:05;;;;;;;11.30;2.00;;;;;;;;;;5128728;27;21601;-81
2021/10/31 13:44:32;;;;;;;6.30;1.90;;;;;;;;;;5132546;27;20220;-81
2021/10/31 13:47:16;;;;;;;7.45;1.60;;;;;;;;;;5120118;27;20232;-81
2021/10/31 13:49:44;;;;;;;9.30;2.20;;;;;;;;;;5116437;27;20200;-80
2021/10/31 13:52:13;;;;;;;7.23;1.93;;;;;;;;;;5119657;27;20236;-80
2021/10/31 13:54:44;;;;;;;9.80;1.83;;;;;;;;;;5123616;27;20200;-80
2021/10/31 13:57:17;;;;;;;10.77;2.10;;;;;;;;;;5126274;27;20286;-80
2021/10/31 13:59:44;;;;;;;11.20;1.90;;;;;;;;;;5112528;28;20699;-81
2021/10/31 14:02:16;;;;;;;7.97;1.48;;;;;;;;;;5112883;28;20213;-80
2021/10/31 14:04:44;;;;;;;13.00;1.67;;;;;;;;;;5111159;28;20238;-79
2021/10/31 14:07:13;;;;;;;6.97;1.67;;;17.50;99.90;;;;;;5112493;28;20290;-78
2021/10/31 14:09:46;;;;;;;10.75;2.05;;;17.20;99.90;;;;;;5112274;28;20637;-79
2021/10/31 14:12:20;;;;;;;10.70;2.25;;;17.40;99.90;;;;;;5112459;28;20236;-79
2021/10/31 14:14:51;;;;;;;10.85;2.20;;;17.80;99.90;;;;;;5110937;28;20191;-80
2021/10/31 14:17:20;;;;;;;8.57;2.10;;;17.90;99.90;;;;;;5122716;27;20196;-80
2021/10/31 14:19:49;;;;;;;7.60;2.10;;;17.60;99.90;;;;;;5117193;27;20633;-80
2021/10/31 14:22:17;;;;;;;9.40;1.67;;;16.80;99.90;;;;;;5122644;27;20604;-80
2021/10/31 14:25:00;;;;;;;7.22;1.52;;;16.70;99.90;;;;;;5121733;27;20649;-79
2021/10/31 14:27:30;;;;;;;13.23;2.10;;;16.70;99.90;;;;;;5130258;27;20204;-79
2021/10/31 14:30:26;;;;;;;10.48;1.90;;;16.70;99.90;;;;;;5117043;28;20202;-79
2021/10/31 14:33:00;;;;;;;10.50;1.88;;;16.90;99.90;;;;;;5127098;27;20217;-79
2021/10/31 14:35:47;;;;;;;9.02;1.50;;;16.90;99.90;;;;;;5116000;28;20665;-79
2021/10/31 14:38:26;;;;;;;7.17;1.70;;;16.70;99.90;;;;;;5115697;28;20239;-80
2021/10/31 14:41:07;;;;;;;7.43;1.50;;;16.50;99.90;;;;;;5115194;27;20288;-80
2021/10/31 14:43:35;;;;;;;7.17;1.40;;;16.50;99.90;;;;;;5123910;28;20661;-80
2021/10/31 14:46:08;;;;;;;7.37;1.50;;;16.40;99.90;;;;;;5129167;27;20205;-80
2021/10/31 14:48:37;;;;;;;8.07;1.63;;;16.40;99.90;;;;;;5120175;27;20288;-80